sensor_id;sensor_type;location;lat;lon;timestamp;pressure;altitude;pressure_sealevel;temperature;humidity
5284;BME280;15377;48.540;9.268;2023-07-22T00:00:14;97431.66;;;11.93;100.00
5284;BME280;15377;48.540;9.268;2023-07-22T00:02:43;97428.06;;;11.87;100.00
5284;BME280;15377;48.540;9.268;2023-07-22T00:05:09;97446.28;;;11.99;100.00
5284;BME280;15377;48.540;9.268;2023-07-22T00:07:37;97440.34;;;12.06;100.00
5284;BME280;15377;48.540;9.268;2023-07-22T00:10:06;97422.28;;;11.85;100.00
5284;BME280;15377;48.540;9.268;2023-07-22T00:12:31;97441.19;;;11.92;100.00
5284;BME280;15377;48.540;9.268;2023-07-22T00:14:57;97443.28;;;11.82;100.00
5284;BME280;15377;48.540;9.268;2023-07-22T00:17:22;97444.22;;;11.79;100.00
5284;BME280;15377;48.540;9.268;2023-07-22T00:19:49;97431.53;;;11.67;100.00
5284;BME280;15377;48.540;9.268;2023-07-22T00:22:15;97446.22;;;11.79;100.00
5284;BME280;15377;48.540;9.268;2023-07-22T00:24:40;97450.91;;;11.73;100.00
5284;BME280;15377;48.540;9.268;2023-07-22T00:27:06;97455.25;;;11.79;100.00
5284;BME280;15377;48.540;9.268;2023-07-22T00:29:34;97446.34;;;11.70;100.00
5284;BME280;15377;48.540;9.268;2023-07-22T00:31:59;97448.81;;;11.68;100.00
5284;BME280;15377;48.540;9.268;2023-07-22T00:34:24;97431.34;;;11.56;100.00
5284;BME280;15377;48.540;9.268;2023-07-22T00:36:50;97446.53;;;11.66;100.00
5284;BME280;15377;48.540;9.268;2023-07-22T00:39:15;97437.59;;;11.57;100.00
5284;BME280;15377;48.540;9.268;2023-07-22T00:41:40;97424.97;;;11.50;100.00
5284;BME280;15377;48.540;9.268;2023-07-22T00:44:09;97445.56;;;11.69;100.00
5284;BME280;15377;48.540;9.268;2023-07-22T00:46:35;97441.00;;;11.81;100.00
5284;BME280;15377;48.540;9.268;2023-07-22T00:49:00;97440.34;;;12.06;100.00
5284;BME280;15377;48.540;9.268;2023-07-22T00:51:26;97441.78;;;12.01;100.00
5284;BME280;15377;48.540;9.268;2023-07-22T00:53:51;97435.66;;;11.92;100.00
5284;BME280;15377;48.540;9.268;2023-07-22T00:56:17;97440.88;;;11.90;100.00
5284;BME280;15377;48.540;9.268;2023-07-22T00:58:42;97415.91;;;11.79;100.00
5284;BME280;15377;48.540;9.268;2023-07-22T01:01:08;97426.94;;;11.79;100.00
5284;BME280;15377;48.540;9.268;2023-07-22T01:03:33;97433.97;;;11.80;100.00
5284;BME280;15377;48.540;9.268;2023-07-22T01:05:59;97413.16;;;11.99;100.00
5284;BME280;15377;48.540;9.268;2023-07-22T01:08:26;97431.28;;;12.20;100.00
5284;BME280;15377;48.540;9.268;2023-07-22T01:10:51;97427.53;;;12.23;100.00
5284;BME280;15377;48.540;9.268;2023-07-22T01:13:16;97321.00;;;11.65;100.00
5284;BME280;15377;48.540;9.268;2023-07-22T01:15:42;97411.69;;;12.38;100.00
5284;BME280;15377;48.540;9.268;2023-07-22T01:18:08;97420.38;;;12.51;100.00
5284;BME280;15377;48.540;9.268;2023-07-22T01:20:34;97412.78;;;12.46;100.00
5284;BME280;15377;48.540;9.268;2023-07-22T01:23:00;97418.25;;;12.40;100.00
5284;BME280;15377;48.540;9.268;2023-07-22T01:25:26;97406.25;;;12.23;100.00
5284;BME280;15377;48.540;9.268;2023-07-22T01:27:53;97429.66;;;12.48;100.00
5284;BME280;15377;48.540;9.268;2023-07-22T01:30:18;97424.94;;;12.54;100.00
5284;BME280;15377;48.540;9.268;2023-07-22T01:32:45;97428.47;;;12.54;100.00
5284;BME280;15377;48.540;9.268;2023-07-22T01:35:11;97425.47;;;12.38;100.00
5284;BME280;15377;48.540;9.268;2023-07-22T01:37:37;97425.81;;;12.25;100.00
5284;BME280;15377;48.540;9.268;2023-07-22T01:40:02;97416.59;;;12.28;100.00
5284;BME280;15377;48.540;9.268;2023-07-22T01:42:38;97421.69;;;12.15;100.00
5284;BME280;15377;48.540;9.268;2023-07-22T01:45:05;97386.31;;;11.79;100.00
5284;BME280;15377;48.540;9.268;2023-07-22T01:47:33;97422.16;;;11.94;100.00
5284;BME280;15377;48.540;9.268;2023-07-22T01:49:59;97412.06;;;11.91;100.00
5284;BME280;15377;48.540;9.268;2023-07-22T01:52:24;97415.25;;;12.04;100.00
5284;BME280;15377;48.540;9.268;2023-07-22T01:54:50;97414.50;;;12.03;100.00
5284;BME280;15377;48.540;9.268;2023-07-22T01:57:15;97417.38;;;11.94;100.00
5284;BME280;15377;48.540;9.268;2023-07-22T01:59:40;97416.44;;;11.83;100.00
5284;BME280;15377;48.540;9.268;2023-07-22T02:02:06;97419.34;;;11.74;100.00
5284;BME280;15377;48.540;9.268;2023-07-22T02:04:31;97418.41;;;11.62;100.00
5284;BME280;15377;48.540;9.268;2023-07-22T02:06:56;97401.03;;;11.42;100.00
5284;BME280;15377;48.540;9.268;2023-07-22T02:09:22;97409.09;;;11.60;100.00
5284;BME280;15377;48.540;9.268;2023-07-22T02:11:47;97404.81;;;11.44;100.00
5284;BME280;15377;48.540;9.268;2023-07-22T02:14:13;97401.47;;;11.69;100.00
5284;BME280;15377;48.540;9.268;2023-07-22T02:16:38;97420.84;;;11.75;100.00
5284;BME280;15377;48.540;9.268;2023-07-22T02:19:04;97393.34;;;11.46;100.00
5284;BME280;15377;48.540;9.268;2023-07-22T02:21:29;97427.53;;;11.54;100.00
5284;BME280;15377;48.540;9.268;2023-07-22T02:23:55;97425.81;;;11.42;100.00
5284;BME280;15377;48.540;9.268;2023-07-22T02:26:20;97382.91;;;11.06;100.00
5284;BME280;15377;48.540;9.268;2023-07-22T02:28:45;97419.19;;;11.19;100.00
5284;BME280;15377;48.540;9.268;2023-07-22T02:31:11;97438.00;;;11.21;100.00
5284;BME280;15377;48.540;9.268;2023-07-22T02:33:37;97412.50;;;10.97;100.00
5284;BME280;15377;48.540;9.268;2023-07-22T02:36:03;97407.41;;;10.90;100.00
5284;BME280;15377;48.540;9.268;2023-07-22T02:38:28;97432.09;;;10.99;100.00
5284;BME280;15377;48.540;9.268;2023-07-22T02:40:54;97435.13;;;11.01;100.00
5284;BME280;15377;48.540;9.268;2023-07-22T02:43:19;97387.81;;;10.59;100.00
5284;BME280;15377;48.540;9.268;2023-07-22T02:45:44;97431.63;;;11.15;100.00
5284;BME280;15377;48.540;9.268;2023-07-22T02:48:10;97429.91;;;11.32;100.00
5284;BME280;15377;48.540;9.268;2023-07-22T02:50:35;97440.06;;;11.55;100.00
5284;BME280;15377;48.540;9.268;2023-07-22T02:53:02;97446.63;;;11.43;100.00
5284;BME280;15377;48.540;9.268;2023-07-22T02:55:27;97438.19;;;11.32;100.00
5284;BME280;15377;48.540;9.268;2023-07-22T02:57:53;97421.63;;;11.03;100.00
5284;BME280;15377;48.540;9.268;2023-07-22T03:00:19;97448.53;;;11.08;100.00
5284;BME280;15377;48.540;9.268;2023-07-22T03:02:54;97443.66;;;10.88;100.00
5284;BME280;15377;48.540;9.268;2023-07-22T03:05:26;97442.19;;;10.64;100.00
5284;BME280;15377;48.540;9.268;2023-07-22T03:07:55;97447.75;;;10.55;100.00
5284;BME280;15377;48.540;9.268;2023-07-22T03:10:21;97420.75;;;10.30;100.00
5284;BME280;15377;48.540;9.268;2023-07-22T03:12:46;97428.88;;;10.25;100.00
5284;BME280;15377;48.540;9.268;2023-07-22T03:15:12;97440.63;;;10.25;100.00
5284;BME280;15377;48.540;9.268;2023-07-22T03:17:39;97432.25;;;10.20;100.00
5284;BME280;15377;48.540;9.268;2023-07-22T03:20:05;97438.72;;;10.17;100.00
5284;BME280;15377;48.540;9.268;2023-07-22T03:22:40;97435.47;;;10.18;100.00
5284;BME280;15377;48.540;9.268;2023-07-22T03:25:08;97424.34;;;10.13;100.00
5284;BME280;15377;48.540;9.268;2023-07-22T03:27:35;97409.00;;;9.97;100.00
5284;BME280;15377;48.540;9.268;2023-07-22T03:30:02;97408.91;;;9.92;100.00
5284;BME280;15377;48.540;9.268;2023-07-22T03:32:28;97429.84;;;10.13;100.00
5284;BME280;15377;48.540;9.268;2023-07-22T03:34:53;97427.41;;;10.15;100.00
5284;BME280;15377;48.540;9.268;2023-07-22T03:37:18;97408.41;;;9.93;100.00
5284;BME280;15377;48.540;9.268;2023-07-22T03:39:46;97418.28;;;10.09;100.00
5284;BME280;15377;48.540;9.268;2023-07-22T03:42:11;97418.00;;;9.98;100.00
5284;BME280;15377;48.540;9.268;2023-07-22T03:44:37;97432.22;;;10.05;100.00
5284;BME280;15377;48.540;9.268;2023-07-22T03:47:02;97427.00;;;10.07;100.00
5284;BME280;15377;48.540;9.268;2023-07-22T03:49:27;97422.59;;;10.01;100.00
5284;BME280;15377;48.540;9.268;2023-07-22T03:51:53;97423.50;;;9.98;100.00
5284;BME280;15377;48.540;9.268;2023-07-22T03:54:18;97398.09;;;9.79;100.00
5284;BME280;15377;48.540;9.268;2023-07-22T03:56:43;97419.72;;;9.95;100.00
5284;BME280;15377;48.540;9.268;2023-07-22T03:59:09;97422.09;;;10.02;100.00
5284;BME280;15377;48.540;9.268;2023-07-22T04:01:34;97413.00;;;9.96;100.00
5284;BME280;15377;48.540;9.268;2023-07-22T04:03:59;97411.47;;;9.95;100.00
5284;BME280;15377;48.540;9.268;2023-07-22T04:06:24;97415.09;;;10.01;100.00
5284;BME280;15377;48.540;9.268;2023-07-22T04:08:51;97412.69;;;10.03;100.00
5284;BME280;15377;48.540;9.268;2023-07-22T04:11:17;97420.75;;;10.30;100.00
5284;BME280;15377;48.540;9.268;2023-07-22T04:13:42;97405.66;;;10.64;100.00
5284;BME280;15377;48.540;9.268;2023-07-22T04:16:07;97405.47;;;10.67;100.00
5284;BME280;15377;48.540;9.268;2023-07-22T04:18:33;97428.66;;;10.89;100.00
5284;BME280;15377;48.540;9.268;2023-07-22T04:21:00;97423.94;;;10.90;100.00
5284;BME280;15377;48.540;9.268;2023-07-22T04:23:25;97380.41;;;10.65;100.00
5284;BME280;15377;48.540;9.268;2023-07-22T04:25:51;97420.03;;;10.82;100.00
5284;BME280;15377;48.540;9.268;2023-07-22T04:28:17;97399.97;;;10.67;100.00
5284;BME280;15377;48.540;9.268;2023-07-22T04:30:42;97423.81;;;10.84;100.00
5284;BME280;15377;48.540;9.268;2023-07-22T04:33:07;97400.16;;;10.78;100.00
5284;BME280;15377;48.540;9.268;2023-07-22T04:35:37;97386.78;;;10.71;100.00
5284;BME280;15377;48.540;9.268;2023-07-22T04:38:03;97414.25;;;10.94;100.00
5284;BME280;15377;48.540;9.268;2023-07-22T04:40:29;97423.53;;;10.97;100.00
5284;BME280;15377;48.540;9.268;2023-07-22T04:42:55;97390.38;;;10.77;100.00
5284;BME280;15377;48.540;9.268;2023-07-22T04:45:22;97407.78;;;10.83;100.00
5284;BME280;15377;48.540;9.268;2023-07-22T04:47:49;97420.91;;;11.02;100.00
5284;BME280;15377;48.540;9.268;2023-07-22T04:50:16;97426.41;;;11.17;100.00
5284;BME280;15377;48.540;9.268;2023-07-22T04:52:43;97417.38;;;11.31;100.00
5284;BME280;15377;48.540;9.268;2023-07-22T04:55:10;97404.16;;;11.35;100.00
5284;BME280;15377;48.540;9.268;2023-07-22T04:57:35;97425.34;;;11.58;100.00
5284;BME280;15377;48.540;9.268;2023-07-22T05:00:04;97424.69;;;11.63;100.00
5284;BME280;15377;48.540;9.268;2023-07-22T05:02:30;97425.22;;;11.67;100.00
5284;BME280;15377;48.540;9.268;2023-07-22T05:04:56;97428.84;;;11.73;100.00
5284;BME280;15377;48.540;9.268;2023-07-22T05:07:22;97442.72;;;11.78;100.00
5284;BME280;15377;48.540;9.268;2023-07-22T05:09:48;97418.28;;;11.86;100.00
5284;BME280;15377;48.540;9.268;2023-07-22T05:12:13;97439.41;;;12.09;100.00
5284;BME280;15377;48.540;9.268;2023-07-22T05:14:38;97438.59;;;12.23;100.00
5284;BME280;15377;48.540;9.268;2023-07-22T05:17:04;97436.88;;;12.25;100.00
5284;BME280;15377;48.540;9.268;2023-07-22T05:19:29;97449.16;;;12.44;100.00
5284;BME280;15377;48.540;9.268;2023-07-22T05:21:55;97449.88;;;12.59;100.00
5284;BME280;15377;48.540;9.268;2023-07-22T05:24:20;97447.84;;;12.80;100.00
5284;BME280;15377;48.540;9.268;2023-07-22T05:26:46;97451.09;;;12.98;100.00
5284;BME280;15377;48.540;9.268;2023-07-22T05:29:11;97437.81;;;13.02;100.00
5284;BME280;15377;48.540;9.268;2023-07-22T05:31:37;97456.91;;;13.26;100.00
5284;BME280;15377;48.540;9.268;2023-07-22T05:34:02;97462.53;;;13.37;100.00
5284;BME280;15377;48.540;9.268;2023-07-22T05:36:29;97460.88;;;13.50;100.00
5284;BME280;15377;48.540;9.268;2023-07-22T05:38:54;97462.00;;;13.64;100.00
5284;BME280;15377;48.540;9.268;2023-07-22T05:41:20;97451.78;;;13.75;100.00
5284;BME280;15377;48.540;9.268;2023-07-22T05:43:45;97458.03;;;14.01;100.00
5284;BME280;15377;48.540;9.268;2023-07-22T05:46:10;97464.66;;;14.15;100.00
5284;BME280;15377;48.540;9.268;2023-07-22T05:48:36;97458.16;;;14.18;100.00
5284;BME280;15377;48.540;9.268;2023-07-22T05:51:01;97475.34;;;14.33;100.00
5284;BME280;15377;48.540;9.268;2023-07-22T05:53:27;97461.25;;;14.31;100.00
5284;BME280;15377;48.540;9.268;2023-07-22T05:55:52;97475.94;;;14.48;100.00
5284;BME280;15377;48.540;9.268;2023-07-22T05:58:18;97484.13;;;14.68;100.00
5284;BME280;15377;48.540;9.268;2023-07-22T06:00:43;97466.25;;;14.74;100.00
5284;BME280;15377;48.540;9.268;2023-07-22T06:03:09;97482.44;;;14.97;100.00
5284;BME280;15377;48.540;9.268;2023-07-22T06:05:34;97456.75;;;14.97;100.00
5284;BME280;15377;48.540;9.268;2023-07-22T06:08:00;97484.31;;;15.28;100.00
5284;BME280;15377;48.540;9.268;2023-07-22T06:10:25;97489.91;;;15.44;100.00
5284;BME280;15377;48.540;9.268;2023-07-22T06:12:50;97495.22;;;15.53;100.00
5284;BME280;15377;48.540;9.268;2023-07-22T06:15:16;97484.63;;;15.57;100.00
5284;BME280;15377;48.540;9.268;2023-07-22T06:17:41;97475.81;;;15.64;100.00
5284;BME280;15377;48.540;9.268;2023-07-22T06:20:08;97490.69;;;15.83;100.00
5284;BME280;15377;48.540;9.268;2023-07-22T06:22:33;97484.91;;;15.81;100.00
5284;BME280;15377;48.540;9.268;2023-07-22T06:24:58;97494.50;;;16.02;100.00
5284;BME280;15377;48.540;9.268;2023-07-22T06:27:24;97505.06;;;16.20;100.00
5284;BME280;15377;48.540;9.268;2023-07-22T06:29:49;97501.78;;;16.33;100.00
5284;BME280;15377;48.540;9.268;2023-07-22T06:32:14;97477.78;;;16.24;100.00
5284;BME280;15377;48.540;9.268;2023-07-22T06:34:40;97515.16;;;16.56;100.00
5284;BME280;15377;48.540;9.268;2023-07-22T06:37:05;97507.53;;;16.62;100.00
5284;BME280;15377;48.540;9.268;2023-07-22T06:39:30;97490.38;;;16.64;100.00
5284;BME280;15377;48.540;9.268;2023-07-22T06:41:56;97508.72;;;16.89;100.00
5284;BME280;15377;48.540;9.268;2023-07-22T06:44:21;97504.41;;;16.93;100.00
5284;BME280;15377;48.540;9.268;2023-07-22T06:46:46;97496.88;;;16.88;100.00
5284;BME280;15377;48.540;9.268;2023-07-22T06:49:12;97506.63;;;17.06;100.00
5284;BME280;15377;48.540;9.268;2023-07-22T06:51:37;97493.72;;;17.08;100.00
5284;BME280;15377;48.540;9.268;2023-07-22T06:54:03;97503.78;;;17.22;100.00
5284;BME280;15377;48.540;9.268;2023-07-22T06:56:28;97492.59;;;17.33;100.00
5284;BME280;15377;48.540;9.268;2023-07-22T06:58:54;97507.13;;;17.61;100.00
5284;BME280;15377;48.540;9.268;2023-07-22T07:01:19;97506.53;;;17.74;100.00
5284;BME280;15377;48.540;9.268;2023-07-22T07:03:44;97494.06;;;17.80;100.00
5284;BME280;15377;48.540;9.268;2023-07-22T07:06:11;97501.97;;;18.06;100.00
5284;BME280;15377;48.540;9.268;2023-07-22T07:08:36;97508.22;;;18.17;100.00
5284;BME280;15377;48.540;9.268;2023-07-22T07:11:02;97508.88;;;18.29;100.00
5284;BME280;15377;48.540;9.268;2023-07-22T07:13:27;97510.53;;;18.43;100.00
5284;BME280;15377;48.540;9.268;2023-07-22T07:15:54;97511.88;;;18.60;100.00
5284;BME280;15377;48.540;9.268;2023-07-22T07:18:20;97519.28;;;18.76;100.00
5284;BME280;15377;48.540;9.268;2023-07-22T07:20:45;97497.97;;;18.78;100.00
5284;BME280;15377;48.540;9.268;2023-07-22T07:23:12;97507.88;;;18.98;100.00
5284;BME280;15377;48.540;9.268;2023-07-22T07:25:38;97505.41;;;19.13;100.00
5284;BME280;15377;48.540;9.268;2023-07-22T07:28:03;97510.97;;;19.37;100.00
5284;BME280;15377;48.540;9.268;2023-07-22T07:30:28;97519.88;;;19.54;100.00
5284;BME280;15377;48.540;9.268;2023-07-22T07:32:54;97519.44;;;19.68;100.00
5284;BME280;15377;48.540;9.268;2023-07-22T07:35:19;97517.88;;;19.86;100.00
5284;BME280;15377;48.540;9.268;2023-07-22T07:37:44;97527.13;;;19.94;100.00
5284;BME280;15377;48.540;9.268;2023-07-22T07:40:10;97505.47;;;20.00;100.00
5284;BME280;15377;48.540;9.268;2023-07-22T07:42:36;97521.03;;;20.14;100.00
5284;BME280;15377;48.540;9.268;2023-07-22T07:45:01;97524.59;;;20.27;100.00
5284;BME280;15377;48.540;9.268;2023-07-22T07:47:27;97520.88;;;20.38;100.00
5284;BME280;15377;48.540;9.268;2023-07-22T07:49:52;97502.13;;;20.20;100.00
5284;BME280;15377;48.540;9.268;2023-07-22T07:52:17;97509.47;;;20.36;100.00
5284;BME280;15377;48.540;9.268;2023-07-22T07:54:42;97515.53;;;20.53;100.00
5284;BME280;15377;48.540;9.268;2023-07-22T07:57:08;97518.00;;;20.56;100.00
5284;BME280;15377;48.540;9.268;2023-07-22T07:59:34;97511.84;;;20.45;100.00
5284;BME280;15377;48.540;9.268;2023-07-22T08:01:59;97506.91;;;20.51;100.00
5284;BME280;15377;48.540;9.268;2023-07-22T08:04:24;97509.41;;;20.54;100.00
5284;BME280;15377;48.540;9.268;2023-07-22T08:06:50;97517.78;;;20.67;100.00
5284;BME280;15377;48.540;9.268;2023-07-22T08:09:15;97495.31;;;20.60;100.00
5284;BME280;15377;48.540;9.268;2023-07-22T08:11:44;97518.97;;;20.85;100.00
5284;BME280;15377;48.540;9.268;2023-07-22T08:14:09;97513.81;;;20.76;100.00
5284;BME280;15377;48.540;9.268;2023-07-22T08:16:35;97510.59;;;20.85;100.00
5284;BME280;15377;48.540;9.268;2023-07-22T08:19:00;97474.13;;;20.64;100.00
5284;BME280;15377;48.540;9.268;2023-07-22T08:21:26;97511.94;;;20.97;100.00
5284;BME280;15377;48.540;9.268;2023-07-22T08:23:51;97508.25;;;21.02;100.00
5284;BME280;15377;48.540;9.268;2023-07-22T08:26:17;97500.72;;;21.10;100.00
5284;BME280;15377;48.540;9.268;2023-07-22T08:28:46;97509.31;;;21.12;100.00
5284;BME280;15377;48.540;9.268;2023-07-22T08:31:12;97512.31;;;21.27;100.00
5284;BME280;15377;48.540;9.268;2023-07-22T08:33:37;97495.94;;;21.31;100.00
5284;BME280;15377;48.540;9.268;2023-07-22T08:36:03;97518.31;;;21.44;99.86
5284;BME280;15377;48.540;9.268;2023-07-22T08:38:28;97504.84;;;21.42;98.07
5284;BME280;15377;48.540;9.268;2023-07-22T08:40:53;97490.97;;;21.37;100.00
5284;BME280;15377;48.540;9.268;2023-07-22T08:43:20;97509.56;;;21.47;96.83
5284;BME280;15377;48.540;9.268;2023-07-22T08:45:47;97504.06;;;21.55;94.63
5284;BME280;15377;48.540;9.268;2023-07-22T08:48:15;97499.06;;;21.74;92.49
5284;BME280;15377;48.540;9.268;2023-07-22T08:50:54;97503.34;;;21.88;92.09
5284;BME280;15377;48.540;9.268;2023-07-22T08:53:20;97501.56;;;21.98;87.04
5284;BME280;15377;48.540;9.268;2023-07-22T08:55:46;97509.91;;;22.11;87.92
5284;BME280;15377;48.540;9.268;2023-07-22T08:58:13;97493.97;;;22.06;86.56
5284;BME280;15377;48.540;9.268;2023-07-22T09:00:39;97505.88;;;22.19;82.67
5284;BME280;15377;48.540;9.268;2023-07-22T09:03:05;97500.41;;;22.14;80.92
5284;BME280;15377;48.540;9.268;2023-07-22T09:05:32;97502.13;;;22.17;76.51
5284;BME280;15377;48.540;9.268;2023-07-22T09:07:59;97498.41;;;22.22;76.77
5284;BME280;15377;48.540;9.268;2023-07-22T09:10:27;97496.31;;;22.35;76.27
5284;BME280;15377;48.540;9.268;2023-07-22T09:12:53;97500.19;;;22.53;77.19
5284;BME280;15377;48.540;9.268;2023-07-22T09:15:19;97499.31;;;22.58;76.18
5284;BME280;15377;48.540;9.268;2023-07-22T09:17:45;97491.16;;;22.67;76.59
5284;BME280;15377;48.540;9.268;2023-07-22T09:20:15;97464.44;;;22.74;78.16
5284;BME280;15377;48.540;9.268;2023-07-22T09:22:44;97482.44;;;23.13;74.61
5284;BME280;15377;48.540;9.268;2023-07-22T09:25:16;97478.97;;;23.28;72.68
5284;BME280;15377;48.540;9.268;2023-07-22T09:27:42;97477.28;;;23.32;72.50
5284;BME280;15377;48.540;9.268;2023-07-22T09:30:28;97439.91;;;23.02;67.46
5284;BME280;15377;48.540;9.268;2023-07-22T09:32:59;97486.47;;;23.33;70.88
5284;BME280;15377;48.540;9.268;2023-07-22T09:35:27;97477.16;;;23.45;74.02
5284;BME280;15377;48.540;9.268;2023-07-22T09:37:53;97476.34;;;23.80;76.03
5284;BME280;15377;48.540;9.268;2023-07-22T09:40:24;97472.66;;;24.00;69.85
5284;BME280;15377;48.540;9.268;2023-07-22T09:42:52;97477.38;;;24.20;72.36
5284;BME280;15377;48.540;9.268;2023-07-22T09:45:19;97472.84;;;24.32;68.54
5284;BME280;15377;48.540;9.268;2023-07-22T09:47:49;97469.84;;;24.45;68.99
5284;BME280;15377;48.540;9.268;2023-07-22T09:50:16;97472.69;;;24.60;62.75
5284;BME280;15377;48.540;9.268;2023-07-22T09:52:47;97462.72;;;24.14;56.47
5284;BME280;15377;48.540;9.268;2023-07-22T09:55:15;97438.91;;;24.30;60.43
5284;BME280;15377;48.540;9.268;2023-07-22T09:57:44;97443.56;;;24.80;56.89
5284;BME280;15377;48.540;9.268;2023-07-22T10:00:15;97452.81;;;25.28;56.94
5284;BME280;15377;48.540;9.268;2023-07-22T10:02:45;97447.16;;;25.67;60.18
5284;BME280;15377;48.540;9.268;2023-07-22T10:05:16;97453.44;;;25.90;56.60
5284;BME280;15377;48.540;9.268;2023-07-22T10:07:44;97443.50;;;25.89;54.16
5284;BME280;15377;48.540;9.268;2023-07-22T10:10:11;97448.50;;;25.66;54.43
5284;BME280;15377;48.540;9.268;2023-07-22T10:12:40;97455.91;;;25.47;53.97
5284;BME280;15377;48.540;9.268;2023-07-22T10:15:08;97444.31;;;25.35;52.72
5284;BME280;15377;48.540;9.268;2023-07-22T10:17:34;97456.78;;;25.64;53.51
5284;BME280;15377;48.540;9.268;2023-07-22T10:19:59;97456.00;;;26.69;48.55
5284;BME280;15377;48.540;9.268;2023-07-22T10:22:25;97443.31;;;26.36;47.45
5284;BME280;15377;48.540;9.268;2023-07-22T10:24:52;97455.72;;;26.16;49.45
5284;BME280;15377;48.540;9.268;2023-07-22T10:27:19;97443.84;;;26.42;50.04
5284;BME280;15377;48.540;9.268;2023-07-22T10:29:45;97455.00;;;27.76;45.97
5284;BME280;15377;48.540;9.268;2023-07-22T10:32:11;97443.59;;;28.65;42.82
5284;BME280;15377;48.540;9.268;2023-07-22T10:34:36;97429.19;;;28.99;42.29
5284;BME280;15377;48.540;9.268;2023-07-22T10:37:02;97436.50;;;29.40;40.10
5284;BME280;15377;48.540;9.268;2023-07-22T10:39:29;97444.25;;;29.39;40.65
5284;BME280;15377;48.540;9.268;2023-07-22T10:42:00;97437.69;;;29.37;41.55
5284;BME280;15377;48.540;9.268;2023-07-22T10:44:26;97432.69;;;30.65;41.57
5284;BME280;15377;48.540;9.268;2023-07-22T10:46:58;97435.38;;;31.26;37.96
5284;BME280;15377;48.540;9.268;2023-07-22T10:49:24;97437.13;;;30.07;39.91
5284;BME280;15377;48.540;9.268;2023-07-22T10:51:53;97442.16;;;29.21;41.88
5284;BME280;15377;48.540;9.268;2023-07-22T10:54:34;97437.03;;;28.72;42.67
5284;BME280;15377;48.540;9.268;2023-07-22T10:57:24;97435.63;;;28.44;42.58
5284;BME280;15377;48.540;9.268;2023-07-22T10:59:51;97430.75;;;28.45;42.13
5284;BME280;15377;48.540;9.268;2023-07-22T11:02:29;97417.47;;;28.47;41.96
5284;BME280;15377;48.540;9.268;2023-07-22T11:04:58;97411.63;;;28.36;41.95
5284;BME280;15377;48.540;9.268;2023-07-22T11:07:42;97411.88;;;29.14;42.23
5284;BME280;15377;48.540;9.268;2023-07-22T11:10:13;97420.59;;;30.55;38.63
5284;BME280;15377;48.540;9.268;2023-07-22T11:12:39;97423.03;;;30.18;39.09
5284;BME280;15377;48.540;9.268;2023-07-22T11:15:05;97414.03;;;28.49;40.41
5284;BME280;15377;48.540;9.268;2023-07-22T11:17:32;97411.81;;;27.75;44.27
5284;BME280;15377;48.540;9.268;2023-07-22T11:19:59;97416.78;;;27.58;45.08
5284;BME280;15377;48.540;9.268;2023-07-22T11:22:24;97409.47;;;28.27;45.75
5284;BME280;15377;48.540;9.268;2023-07-22T11:24:50;97403.38;;;29.33;43.18
5284;BME280;15377;48.540;9.268;2023-07-22T11:27:16;97402.88;;;29.74;40.13
5284;BME280;15377;48.540;9.268;2023-07-22T11:29:41;97387.81;;;30.33;40.76
5284;BME280;15377;48.540;9.268;2023-07-22T11:32:14;97393.13;;;29.77;40.38
5284;BME280;15377;48.540;9.268;2023-07-22T11:34:41;97399.09;;;27.93;41.61
5284;BME280;15377;48.540;9.268;2023-07-22T11:37:09;97403.13;;;27.21;42.30
5284;BME280;15377;48.540;9.268;2023-07-22T11:39:35;97375.31;;;26.83;44.13
5284;BME280;15377;48.540;9.268;2023-07-22T11:42:01;97378.28;;;27.72;41.98
5284;BME280;15377;48.540;9.268;2023-07-22T11:44:28;97373.22;;;29.28;42.43
5284;BME280;15377;48.540;9.268;2023-07-22T11:47:00;97372.59;;;29.58;40.95
5284;BME280;15377;48.540;9.268;2023-07-22T11:49:47;97354.78;;;29.08;39.23
5284;BME280;15377;48.540;9.268;2023-07-22T11:52:17;97337.38;;;28.28;41.74
5284;BME280;15377;48.540;9.268;2023-07-22T11:54:44;97367.25;;;28.67;41.65
5284;BME280;15377;48.540;9.268;2023-07-22T11:57:23;97366.81;;;28.51;41.54
5284;BME280;15377;48.540;9.268;2023-07-22T11:59:50;97359.59;;;27.86;42.20
5284;BME280;15377;48.540;9.268;2023-07-22T12:02:17;97370.81;;;27.14;42.65
5284;BME280;15377;48.540;9.268;2023-07-22T12:04:44;97365.31;;;26.48;45.08
5284;BME280;15377;48.540;9.268;2023-07-22T12:07:30;97367.72;;;27.20;45.63
5284;BME280;15377;48.540;9.268;2023-07-22T12:09:57;97349.69;;;27.15;44.71
5284;BME280;15377;48.540;9.268;2023-07-22T12:12:45;97347.91;;;26.76;45.87
5284;BME280;15377;48.540;9.268;2023-07-22T12:15:13;97349.47;;;26.36;46.54
5284;BME280;15377;48.540;9.268;2023-07-22T12:17:48;97349.53;;;25.30;47.81
5284;BME280;15377;48.540;9.268;2023-07-22T12:20:14;97345.44;;;25.16;49.43
5284;BME280;15377;48.540;9.268;2023-07-22T12:22:41;97326.41;;;26.05;47.52
5284;BME280;15377;48.540;9.268;2023-07-22T12:25:07;97354.38;;;27.82;45.36
5284;BME280;15377;48.540;9.268;2023-07-22T12:27:32;97340.44;;;28.87;41.63
5284;BME280;15377;48.540;9.268;2023-07-22T12:29:57;97344.63;;;29.05;38.43
5284;BME280;15377;48.540;9.268;2023-07-22T12:32:23;97352.06;;;28.53;40.40
5284;BME280;15377;48.540;9.268;2023-07-22T12:34:48;97346.16;;;28.13;40.69
5284;BME280;15377;48.540;9.268;2023-07-22T12:37:13;97351.28;;;27.88;40.04
5284;BME280;15377;48.540;9.268;2023-07-22T12:39:39;97338.19;;;29.23;38.99
5284;BME280;15377;48.540;9.268;2023-07-22T12:42:04;97335.91;;;30.84;39.34
5284;BME280;15377;48.540;9.268;2023-07-22T12:44:30;97330.16;;;32.04;34.48
5284;BME280;15377;48.540;9.268;2023-07-22T12:46:55;97338.34;;;30.99;34.43
5284;BME280;15377;48.540;9.268;2023-07-22T12:49:21;97310.06;;;30.17;36.28
5284;BME280;15377;48.540;9.268;2023-07-22T12:51:46;97331.34;;;28.98;37.29
5284;BME280;15377;48.540;9.268;2023-07-22T12:54:11;97337.59;;;27.94;39.38
5284;BME280;15377;48.540;9.268;2023-07-22T12:56:37;97338.91;;;27.04;41.92
5284;BME280;15377;48.540;9.268;2023-07-22T12:59:02;97334.41;;;27.01;42.54
5284;BME280;15377;48.540;9.268;2023-07-22T13:01:27;97341.06;;;26.96;44.05